Scroll down
FLIGHT INFORMATION
Ryanair

RYR208

At Arrival Gate

EGNX
 EGKK
DATE: 2020-02-08
GATE: 
GATE DEPARTURE: 15:55
TAKEOFF: 16:03
DATE: 2020-02-08
GATE:  -
LANDING: 16:38
GATE ARRIVAL: 16:42
FLIGHT DATA
Crew: -HIDDEN-
Speed: 359 kts Altitude: 25000 ft
Stage Length: 109 nm
Route: 
Block Time: 0.8 Flight Time: 0.6
Fuel Used: 3741 LB
TRACK DATA
50000 FT1000 KT
AIRCRAFT INFORMATION
Aircraft Type: B737BW
Registration: EI-SEV
SELCAL: NULL MSN/LN: 29078 / 187
Operator: RYANAIR
Flights: 3 Block Time: 2.6 Flight Time: 1.8
Fuel Used: 11394 LB
  • DEPARTURE INFORMATION
    Date: 2020-02-08
    Airport: EGNX
    Gate: 
    Gate Departure: 15:55
    Takeoff: 16:03
    ARRIVAL INFORMATION
    Date: 2020-02-08
    Airport: EGKK
    Gate:  -
    Landing: 16:38
    Gate Arrival: 16:42
  • FLIGHT DATA
    Crew: -HIDDEN-
    Speed: 359 kts Altitude: 25000 ft
    Stage Length: 59 nm
    Route: 
    Block Time: 0.8 Flight Time: 0.6
    Fuel Used: 3741 LB
  • AIRCRAFT INFORMATION
    Aircraft Type: B737BW
    Registration: EI-SEV
    SELCAL: NULL MSN/LN: 29078 / 187
    Operator: Ryanair
    Flights: 3 Block Time: 2.6 Flight Time: 1.8
    Fuel Used: 11394 LB

DATALINK LOG | Newest first | Current as of: 2020-09-30 08:26:18
LABEL SEQUENCE CONTENT Dn/Up
QD435416:42 12.3▼ Dn
QC394716:38▼ Dn
2U1223EGKK 221920Z 22005KT 9999 FEW038 07/06 Q0992▲ Up
2S1223EGKK▼ Dn
GA1731ADVANCED GATE ASSIGNMENTS NOT YET AVAILABLE AT THIS AIRPORT▲ Up
GR1252EGKK --:-- YP/UM 00/02 HI-VAL NO▼ Dn
QB031916:03▼ Dn
QA564515:55 16▼ Dn
Q05403[LINK ACK]▲ Up
Q05202[LINK TEST]▼ Dn
Q04656[LINK ACK]▲ Up
Q04503[LINK TEST]▼ Dn
A33849CLEARED TO EGKK VIA DTY3N DTY WCO MID TIMB1D. SQUAWK 4562.▲ Up
B33639EGNX EGKK RYR208 C ▼ Dn
A33756CLEARED TO EGKK VIA DTY3N DTY WCO MID TIMB1D. SQUAWK 4231.▲ Up
B33639EGNX EGKK RYR208 C ▼ Dn
2U3541EGNX 221920Z 22010KT 9999 BKN031 07/05 Q0990▲ Up
2S3541EGNX▼ Dn
Q03142[LINK ACK]▲ Up
Q03004[LINK TEST]▼ Dn


AIRCRAFT HISTORY
FLIGHT DATE FLIGHT NO. ORIGIN DESTINATION ROUTE BLOCK TIME FLIGHT TIME FUEL USED (LB) PILOT
2020-08-02RYR211EGCC EGNX EGCC TABLY HON58 SANBA PEDIG EME EGNX0.70.42876-HIDDEN-
2020-08-02RYR232EGKK EGCC EGKK KKW02 KKE09 KKE11 KKE15 SUNAV KKE35 KKN43 KKN48 LAM WELIN SAPCO TNT D312E DAYNE CF23R RW23R1.10.74777-HIDDEN-
2020-02-08RYR208EGNX EGKK 0.80.63741-HIDDEN-